createdAt,value
2023-04-30T00:01:25.384Z,8.90
2023-04-30T00:04:11.408Z,8.90
2023-04-30T00:06:56.687Z,8.90
2023-04-30T00:09:42.241Z,8.90
2023-04-30T00:12:29.788Z,8.80
2023-04-30T00:15:15.470Z,8.80
2023-04-30T00:18:01.102Z,8.80
2023-04-30T00:20:46.403Z,8.80
2023-04-30T00:23:31.761Z,8.70
2023-04-30T00:26:17.333Z,8.70
2023-04-30T00:29:10.292Z,8.60
2023-04-30T00:31:57.584Z,8.60
2023-04-30T00:34:43.224Z,8.60
2023-04-30T00:37:28.372Z,8.60
2023-04-30T00:40:14.012Z,8.50
2023-04-30T00:42:59.857Z,8.50
2023-04-30T00:45:44.953Z,8.50
2023-04-30T00:48:30.509Z,8.50
2023-04-30T00:51:18.091Z,8.50
2023-04-30T00:54:03.858Z,8.60
2023-04-30T00:56:49.565Z,8.60
2023-04-30T00:59:35.361Z,8.60
2023-04-30T01:02:20.964Z,8.60
2023-04-30T01:05:07.775Z,8.60
2023-04-30T01:07:54.635Z,8.60
2023-04-30T01:10:53.764Z,8.60
2023-04-30T01:13:49.448Z,8.70
2023-04-30T01:16:48.781Z,8.60
2023-04-30T01:19:40.446Z,8.60
2023-04-30T01:22:28.801Z,8.60
2023-04-30T01:25:33.550Z,8.60
2023-04-30T01:28:20.812Z,8.60
2023-04-30T01:31:18.404Z,8.70
2023-04-30T01:34:07.129Z,8.60
2023-04-30T01:37:06.227Z,8.60
2023-04-30T01:40:28.079Z,8.60
2023-04-30T01:43:37.884Z,8.50
2023-04-30T01:46:30.123Z,8.50
2023-04-30T01:49:40.514Z,8.40
2023-04-30T01:52:34.858Z,8.50
2023-04-30T01:55:37.887Z,8.40
2023-04-30T01:58:25.606Z,8.40
2023-04-30T02:01:32.938Z,8.30
2023-04-30T02:04:18.406Z,8.30
2023-04-30T02:07:03.778Z,8.30
2023-04-30T02:09:48.993Z,8.30
2023-04-30T02:12:35.150Z,8.30
2023-04-30T02:15:20.903Z,8.30
2023-04-30T02:18:06.679Z,8.30
2023-04-30T02:20:52.002Z,8.30
2023-04-30T02:23:37.459Z,8.30
2023-04-30T02:26:23.068Z,8.30
2023-04-30T02:29:08.096Z,8.30
2023-04-30T02:31:53.478Z,8.30
2023-04-30T02:34:38.704Z,8.40
2023-04-30T02:37:24.203Z,8.40
2023-04-30T02:40:10.573Z,8.40
2023-04-30T02:42:57.266Z,8.40
2023-04-30T02:45:42.690Z,8.40
2023-04-30T02:48:27.816Z,8.30
2023-04-30T02:51:13.407Z,8.30
2023-04-30T02:53:59.199Z,8.20
2023-04-30T02:56:46.558Z,8.20
2023-04-30T02:59:32.097Z,8.20
2023-04-30T03:02:21.516Z,8.20
2023-04-30T03:05:10.308Z,8.20
2023-04-30T03:07:55.936Z,8.20
2023-04-30T03:10:41.687Z,8.20
2023-04-30T03:13:26.924Z,8.20
2023-04-30T03:16:12.245Z,8.10
2023-04-30T03:18:57.671Z,8.10
2023-04-30T03:21:43.233Z,8.10
2023-04-30T03:24:29.314Z,8.20
2023-04-30T03:27:16.840Z,8.20
2023-04-30T03:30:02.341Z,8.20
2023-04-30T03:32:48.053Z,8.10
2023-04-30T03:35:35.274Z,8.10
2023-04-30T03:38:20.754Z,8.00
2023-04-30T03:41:06.403Z,8.00
2023-04-30T03:43:54.909Z,7.90
2023-04-30T03:46:40.537Z,7.90
2023-04-30T03:49:25.907Z,7.90
2023-04-30T03:52:11.460Z,7.90
2023-04-30T03:54:57.503Z,7.80
2023-04-30T03:57:43.222Z,7.80
2023-04-30T04:00:28.976Z,7.80
2023-04-30T04:03:15.727Z,7.80
2023-04-30T04:06:01.280Z,7.70
2023-04-30T04:08:47.000Z,7.70
2023-04-30T04:11:33.300Z,7.70
2023-04-30T04:14:18.929Z,7.70
2023-04-30T04:17:08.195Z,7.70
2023-04-30T04:19:54.041Z,7.60
2023-04-30T04:22:39.910Z,7.60
2023-04-30T04:25:28.954Z,7.60
2023-04-30T04:28:14.598Z,7.60
2023-04-30T04:31:00.071Z,7.60
2023-04-30T04:33:45.909Z,7.60
2023-04-30T04:36:31.825Z,7.60
2023-04-30T04:39:17.005Z,7.60
2023-04-30T04:42:02.897Z,7.70
2023-04-30T04:44:48.338Z,7.80
2023-04-30T04:47:38.570Z,7.80
2023-04-30T04:50:24.237Z,7.80
2023-04-30T04:53:09.668Z,7.70
2023-04-30T04:55:54.975Z,7.80
2023-04-30T04:58:43.108Z,7.80
2023-04-30T05:01:29.451Z,7.80
2023-04-30T05:04:14.998Z,7.80
2023-04-30T05:07:01.458Z,7.80
2023-04-30T05:09:47.281Z,7.90
2023-04-30T05:12:32.997Z,7.90
2023-04-30T05:15:18.182Z,8.00
2023-04-30T05:18:03.897Z,8.00
2023-04-30T05:20:49.361Z,8.10
2023-04-30T05:23:34.423Z,8.10
2023-04-30T05:26:20.138Z,8.20
2023-04-30T05:29:05.874Z,8.20
2023-04-30T05:31:51.610Z,8.30
2023-04-30T05:34:37.024Z,8.30
2023-04-30T05:37:22.793Z,8.40
2023-04-30T05:40:08.855Z,8.40
2023-04-30T05:42:54.301Z,8.50
2023-04-30T05:45:42.708Z,8.50
2023-04-30T05:48:30.855Z,8.60
2023-04-30T05:51:16.184Z,8.60
2023-04-30T05:54:01.650Z,8.70
2023-04-30T05:56:47.132Z,8.80
2023-04-30T05:59:32.454Z,8.90
2023-04-30T06:02:18.077Z,8.90
2023-04-30T06:05:03.760Z,9.00
2023-04-30T06:07:49.981Z,9.00
2023-04-30T06:10:38.480Z,9.10
2023-04-30T06:13:23.969Z,9.20
2023-04-30T06:16:09.723Z,9.30
2023-04-30T06:18:55.054Z,9.30
2023-04-30T06:21:40.599Z,9.40
2023-04-30T06:24:27.545Z,9.50
2023-04-30T06:27:13.377Z,9.60
2023-04-30T06:30:01.874Z,9.60
2023-04-30T06:32:47.607Z,9.70
2023-04-30T06:35:33.331Z,9.70
2023-04-30T06:38:19.153Z,9.80
2023-04-30T06:41:04.444Z,9.80
2023-04-30T06:43:50.129Z,9.90
2023-04-30T06:46:36.135Z,9.90
2023-04-30T06:49:21.663Z,10.00
2023-04-30T06:52:09.913Z,10.10
2023-04-30T06:54:55.074Z,10.10
2023-04-30T06:57:40.599Z,10.20
2023-04-30T07:00:26.511Z,10.20
2023-04-30T07:03:12.131Z,10.30
2023-04-30T07:05:57.651Z,10.40
2023-04-30T07:08:49.209Z,10.40
2023-04-30T07:11:34.836Z,10.50
2023-04-30T07:14:20.164Z,10.60
2023-04-30T07:17:05.949Z,10.70
2023-04-30T07:19:51.276Z,10.70
2023-04-30T07:22:36.745Z,10.80
2023-04-30T07:25:22.388Z,10.90
2023-04-30T07:28:07.707Z,10.90
2023-04-30T07:30:53.284Z,11.00
2023-04-30T07:33:38.767Z,11.10
2023-04-30T07:36:24.689Z,11.10
2023-04-30T07:39:11.762Z,11.20
2023-04-30T07:41:57.320Z,11.30
2023-04-30T07:44:42.793Z,11.30
2023-04-30T07:47:28.286Z,11.40
2023-04-30T07:50:14.786Z,11.50
2023-04-30T07:53:01.383Z,11.60
2023-04-30T07:55:46.611Z,11.60
2023-04-30T07:58:32.090Z,11.70
2023-04-30T08:01:17.301Z,11.80
2023-04-30T08:04:02.647Z,11.80
2023-04-30T08:06:48.225Z,11.90
2023-04-30T08:09:33.657Z,12.00
2023-04-30T08:12:19.128Z,12.00
2023-04-30T08:15:07.564Z,12.10
2023-04-30T08:17:55.690Z,12.10
2023-04-30T08:20:41.345Z,12.20
2023-04-30T08:23:27.283Z,12.30
2023-04-30T08:26:12.820Z,12.30
2023-04-30T08:28:57.972Z,12.50
2023-04-30T08:31:43.340Z,12.60
2023-04-30T08:34:28.486Z,12.60
2023-04-30T08:37:14.008Z,12.70
2023-04-30T08:40:00.008Z,12.80
2023-04-30T08:42:57.289Z,12.90
2023-04-30T08:45:42.785Z,13.00
2023-04-30T08:48:28.325Z,13.00
2023-04-30T08:51:15.434Z,13.10
2023-04-30T08:54:06.635Z,13.20
2023-04-30T08:56:52.054Z,13.20
2023-04-30T08:59:38.147Z,13.40
2023-04-30T09:02:23.676Z,13.40
2023-04-30T09:05:12.649Z,13.50
2023-04-30T09:08:04.145Z,13.60
2023-04-30T09:10:52.650Z,13.70
2023-04-30T09:13:41.990Z,13.70
2023-04-30T09:16:33.082Z,13.80
2023-04-30T09:19:26.235Z,13.80
2023-04-30T09:22:24.173Z,13.90
2023-04-30T09:25:11.254Z,14.00
2023-04-30T09:28:13.728Z,14.10
2023-04-30T09:31:00.069Z,14.20
2023-04-30T09:33:47.499Z,14.20
2023-04-30T09:36:33.651Z,14.30
2023-04-30T09:39:18.889Z,14.30
2023-04-30T09:42:12.151Z,14.40
2023-04-30T09:44:58.373Z,14.50
2023-04-30T09:47:43.658Z,14.60
2023-04-30T09:50:43.295Z,14.60
2023-04-30T09:53:29.859Z,14.70
2023-04-30T09:56:20.061Z,14.70
2023-04-30T09:59:08.177Z,14.80
2023-04-30T10:01:55.281Z,14.90
2023-04-30T10:04:43.434Z,15.00
2023-04-30T10:07:36.301Z,15.10
2023-04-30T10:10:22.937Z,15.10
2023-04-30T10:13:14.324Z,15.20
2023-04-30T10:16:04.946Z,15.30
2023-04-30T10:18:52.993Z,15.30
2023-04-30T10:21:48.207Z,15.50
2023-04-30T10:24:33.579Z,15.60
2023-04-30T10:27:19.183Z,15.70
2023-04-30T10:30:05.160Z,15.80
2023-04-30T10:32:53.855Z,16.00
2023-04-30T10:36:01.137Z,16.10
2023-04-30T10:38:48.457Z,16.20
2023-04-30T10:41:34.212Z,16.30
2023-04-30T10:44:23.092Z,16.40
2023-04-30T10:47:10.292Z,16.60
2023-04-30T10:50:04.413Z,16.80
2023-04-30T10:53:05.402Z,16.90
2023-04-30T10:56:01.223Z,17.10
2023-04-30T10:58:47.261Z,17.20
2023-04-30T11:01:54.347Z,17.30
2023-04-30T11:05:12.630Z,17.50
2023-04-30T11:07:58.673Z,17.80
2023-04-30T11:11:00.861Z,18.00
2023-04-30T11:13:58.995Z,18.30
2023-04-30T11:16:44.501Z,18.70
2023-04-30T11:19:32.827Z,19.10
2023-04-30T11:22:25.318Z,19.60
2023-04-30T11:25:16.682Z,20.40
2023-04-30T11:28:02.693Z,21.30
2023-04-30T11:30:58.892Z,22.10
2023-04-30T11:33:44.190Z,23.10
2023-04-30T11:36:31.684Z,24.10
2023-04-30T11:39:18.338Z,25.10
2023-04-30T11:42:03.593Z,25.60
2023-04-30T11:44:49.185Z,26.40
2023-04-30T11:47:57.372Z,26.90
2023-04-30T11:50:43.303Z,27.50
2023-04-30T11:53:29.523Z,28.80
2023-04-30T11:56:18.667Z,29.80
2023-04-30T11:59:11.157Z,30.70
2023-04-30T12:01:57.363Z,31.80
2023-04-30T12:04:48.488Z,32.70
2023-04-30T12:07:34.482Z,33.60
2023-04-30T12:10:20.774Z,34.10
2023-04-30T12:13:06.380Z,34.30
2023-04-30T12:15:59.597Z,34.60
2023-04-30T12:18:52.520Z,34.50
2023-04-30T12:21:39.153Z,34.10
2023-04-30T12:24:27.532Z,34.20
2023-04-30T12:27:12.940Z,34.30
2023-04-30T12:30:09.955Z,34.90
2023-04-30T12:32:59.585Z,34.70
2023-04-30T12:35:45.043Z,34.70
2023-04-30T12:38:30.611Z,35.00
2023-04-30T12:41:19.116Z,35.40
2023-04-30T12:44:25.607Z,35.70
2023-04-30T12:47:11.219Z,36.90
2023-04-30T12:49:58.083Z,37.90
2023-04-30T12:52:46.254Z,38.50
2023-04-30T12:55:31.953Z,39.00
2023-04-30T12:58:17.519Z,39.30
2023-04-30T13:01:03.112Z,40.00
2023-04-30T13:03:48.852Z,40.70
2023-04-30T13:06:35.261Z,41.60
2023-04-30T13:09:20.734Z,41.90
2023-04-30T13:12:09.706Z,41.80
2023-04-30T13:14:55.388Z,42.20
2023-04-30T13:17:40.836Z,42.40
2023-04-30T13:20:27.457Z,42.30
2023-04-30T13:23:13.490Z,41.70
2023-04-30T13:25:59.277Z,41.20
2023-04-30T13:28:45.192Z,41.70
2023-04-30T13:31:31.242Z,42.10
2023-04-30T13:34:18.120Z,41.70
2023-04-30T13:37:03.552Z,41.70
2023-04-30T13:39:49.079Z,42.40
2023-04-30T13:42:36.709Z,43.60
2023-04-30T13:45:22.183Z,44.20
2023-04-30T13:48:07.470Z,44.40
2023-04-30T13:50:54.638Z,42.80
2023-04-30T13:53:40.422Z,40.80
2023-04-30T13:56:28.839Z,40.30
2023-04-30T13:59:15.163Z,41.30
2023-04-30T14:02:00.681Z,42.10
2023-04-30T14:04:58.096Z,42.90
2023-04-30T14:07:50.924Z,42.50
2023-04-30T14:10:36.435Z,42.70
2023-04-30T14:13:21.854Z,42.90
2023-04-30T14:16:07.558Z,43.60
2023-04-30T14:18:52.972Z,44.10
2023-04-30T14:21:38.226Z,45.00
2023-04-30T14:24:29.193Z,45.00
2023-04-30T14:27:14.555Z,45.10
2023-04-30T14:30:00.027Z,44.30
2023-04-30T14:32:45.686Z,44.10
2023-04-30T14:35:31.252Z,44.60
2023-04-30T14:38:17.327Z,45.20
2023-04-30T14:41:02.924Z,45.50
2023-04-30T14:43:48.525Z,44.80
2023-04-30T14:46:34.718Z,44.30
2023-04-30T14:49:20.038Z,44.80
2023-04-30T14:52:05.849Z,45.00
2023-04-30T14:54:51.207Z,45.70
2023-04-30T14:57:36.706Z,46.70
2023-04-30T15:00:22.067Z,47.40
2023-04-30T15:03:07.865Z,46.90
2023-04-30T15:05:53.427Z,47.50
2023-04-30T15:08:44.707Z,48.20
2023-04-30T15:11:31.409Z,46.80
2023-04-30T15:14:17.471Z,45.20
2023-04-30T15:17:03.424Z,45.20
2023-04-30T15:19:48.885Z,44.40
2023-04-30T15:22:36.839Z,44.60
2023-04-30T15:25:24.188Z,44.50
2023-04-30T15:28:10.443Z,42.80
2023-04-30T15:30:56.338Z,42.00
2023-04-30T15:33:42.423Z,42.20
2023-04-30T15:36:27.992Z,43.30
2023-04-30T15:39:14.019Z,44.40
2023-04-30T15:41:59.132Z,44.60
2023-04-30T15:44:44.690Z,43.20
2023-04-30T15:47:30.465Z,42.90
2023-04-30T15:50:15.851Z,43.50
2023-04-30T15:53:01.357Z,41.60
2023-04-30T15:55:48.729Z,40.20
2023-04-30T15:58:34.045Z,40.00
2023-04-30T16:01:19.465Z,39.60
2023-04-30T16:04:06.422Z,39.40
2023-04-30T16:06:55.904Z,39.40
2023-04-30T16:09:45.588Z,40.10
2023-04-30T16:12:31.088Z,40.50
2023-04-30T16:15:16.688Z,40.60
2023-04-30T16:18:01.907Z,40.10
2023-04-30T16:20:48.899Z,39.70
2023-04-30T16:23:34.459Z,39.10
2023-04-30T16:26:20.041Z,38.60
2023-04-30T16:29:05.344Z,37.50
2023-04-30T16:31:52.292Z,36.30
2023-04-30T16:34:37.552Z,36.00
2023-04-30T16:37:23.088Z,35.80
2023-04-30T16:40:10.416Z,35.80
2023-04-30T16:42:55.696Z,35.50
2023-04-30T16:45:45.179Z,35.00
2023-04-30T16:48:30.967Z,34.60
2023-04-30T16:51:16.502Z,34.20
2023-04-30T16:54:02.225Z,33.40
2023-04-30T16:56:47.532Z,32.60
2023-04-30T16:59:33.187Z,32.20
2023-04-30T17:02:18.788Z,32.40
2023-04-30T17:05:05.077Z,32.90
2023-04-30T17:07:50.753Z,33.30
2023-04-30T17:10:38.281Z,33.20
2023-04-30T17:13:23.777Z,33.10
2023-04-30T17:16:09.843Z,32.70
2023-04-30T17:18:54.991Z,32.60
2023-04-30T17:21:40.374Z,32.10
2023-04-30T17:24:26.108Z,31.60
2023-04-30T17:27:11.679Z,30.90
2023-04-30T17:29:57.388Z,30.50
2023-04-30T17:32:44.161Z,30.00
2023-04-30T17:35:29.817Z,29.90
2023-04-30T17:38:15.697Z,30.10
2023-04-30T17:41:01.002Z,29.80
2023-04-30T17:43:46.767Z,29.60
2023-04-30T17:46:32.249Z,29.10
2023-04-30T17:49:18.081Z,28.90
2023-04-30T17:52:05.836Z,28.30
2023-04-30T17:55:11.930Z,27.80
2023-04-30T17:57:59.250Z,27.60
2023-04-30T18:00:44.752Z,27.50
2023-04-30T18:03:30.617Z,27.30
2023-04-30T18:06:19.730Z,27.10
2023-04-30T18:09:04.952Z,26.80
2023-04-30T18:11:50.621Z,26.40
2023-04-30T18:14:36.340Z,26.00
2023-04-30T18:17:21.656Z,25.50
2023-04-30T18:20:08.290Z,25.10
2023-04-30T18:22:56.631Z,24.60
2023-04-30T18:25:45.238Z,24.30
2023-04-30T18:28:30.856Z,23.80
2023-04-30T18:31:16.336Z,23.40
2023-04-30T18:34:01.718Z,23.10
2023-04-30T18:36:47.586Z,22.70
2023-04-30T18:39:33.099Z,22.30
2023-04-30T18:42:21.815Z,22.00
2023-04-30T18:45:09.976Z,21.70
2023-04-30T18:47:55.718Z,21.40
2023-04-30T18:50:43.252Z,21.00
2023-04-30T18:53:28.929Z,20.70
2023-04-30T18:56:15.926Z,20.50
2023-04-30T18:59:01.391Z,20.20
2023-04-30T19:01:47.297Z,19.90
2023-04-30T19:04:32.624Z,19.70
2023-04-30T19:07:18.786Z,19.40
2023-04-30T19:10:04.729Z,19.20
2023-04-30T19:12:50.048Z,19.00
2023-04-30T19:15:35.667Z,18.80
2023-04-30T19:18:21.251Z,18.60
2023-04-30T19:21:07.280Z,18.40
2023-04-30T19:23:52.577Z,18.20
2023-04-30T19:26:38.255Z,18.10
2023-04-30T19:29:24.747Z,17.90
2023-04-30T19:32:10.340Z,17.70
2023-04-30T19:34:55.931Z,17.60
2023-04-30T19:37:41.879Z,17.40
2023-04-30T19:40:27.525Z,17.20
2023-04-30T19:43:13.009Z,17.10
2023-04-30T19:45:59.211Z,16.90
2023-04-30T19:48:45.886Z,16.80
2023-04-30T19:51:32.051Z,16.70
2023-04-30T19:54:18.062Z,16.50
2023-04-30T19:57:03.640Z,16.40
2023-04-30T19:59:49.269Z,16.20
2023-04-30T20:02:34.823Z,16.10
2023-04-30T20:05:20.257Z,16.00
2023-04-30T20:08:07.182Z,15.90
2023-04-30T20:10:52.598Z,15.80
2023-04-30T20:13:38.410Z,15.60
2023-04-30T20:16:23.851Z,15.50
2023-04-30T20:19:09.743Z,15.40
2023-04-30T20:21:55.270Z,15.30
2023-04-30T20:24:44.670Z,15.20
2023-04-30T20:27:30.595Z,15.10
2023-04-30T20:30:17.348Z,15.10
2023-04-30T20:33:03.884Z,15.00
2023-04-30T20:35:49.500Z,14.80
2023-04-30T20:38:34.669Z,14.80
2023-04-30T20:41:21.255Z,14.70
2023-04-30T20:44:07.573Z,14.60
2023-04-30T20:46:53.186Z,14.50
2023-04-30T20:49:38.434Z,14.40
2023-04-30T20:52:23.957Z,14.30
2023-04-30T20:55:11.212Z,14.20
2023-04-30T20:57:56.856Z,14.20
2023-04-30T21:00:42.094Z,14.10
2023-04-30T21:03:37.921Z,14.10
2023-04-30T21:06:23.167Z,14.00
2023-04-30T21:09:10.820Z,14.00
2023-04-30T21:11:56.426Z,13.90
2023-04-30T21:14:41.972Z,13.90
2023-04-30T21:17:29.976Z,13.80
2023-04-30T21:20:15.613Z,13.80
2023-04-30T21:23:05.248Z,13.70
2023-04-30T21:25:54.640Z,13.70
2023-04-30T21:28:40.233Z,13.60
2023-04-30T21:31:25.896Z,13.60
2023-04-30T21:34:11.832Z,13.50
2023-04-30T21:36:57.834Z,13.40
2023-04-30T21:39:43.546Z,13.40
2023-04-30T21:42:29.765Z,13.30
2023-04-30T21:45:16.165Z,13.30
2023-04-30T21:48:01.654Z,13.20
2023-04-30T21:50:48.420Z,13.10
2023-04-30T21:53:35.548Z,13.10
2023-04-30T21:56:21.794Z,13.10
2023-04-30T21:59:07.463Z,13.10
2023-04-30T22:01:53.422Z,13.00
2023-04-30T22:04:38.795Z,13.00
2023-04-30T22:07:24.625Z,12.90
2023-04-30T22:10:10.700Z,13.00
2023-04-30T22:12:56.739Z,12.90
2023-04-30T22:18:32.135Z,12.80
2023-04-30T22:21:17.837Z,12.80
2023-04-30T22:24:03.978Z,12.70
2023-04-30T22:26:49.937Z,12.70
2023-04-30T22:29:36.759Z,12.70
2023-04-30T22:32:22.876Z,12.60
2023-04-30T22:35:24.026Z,12.60
2023-04-30T22:38:10.972Z,12.50
2023-04-30T22:40:57.318Z,12.40
2023-04-30T22:43:45.097Z,12.40
2023-04-30T22:46:33.315Z,12.40
2023-04-30T22:49:27.557Z,12.30
2023-04-30T22:52:16.222Z,12.40
2023-04-30T22:55:02.489Z,12.30
2023-04-30T22:57:47.887Z,12.20
2023-04-30T23:00:33.536Z,12.20
2023-04-30T23:03:21.638Z,12.20
2023-04-30T23:06:07.033Z,12.20
2023-04-30T23:08:53.643Z,12.10
2023-04-30T23:11:39.129Z,12.10
2023-04-30T23:14:25.860Z,12.00
2023-04-30T23:17:11.659Z,12.00
2023-04-30T23:19:57.841Z,11.90
2023-04-30T23:22:43.684Z,11.90
2023-04-30T23:25:30.263Z,11.90
2023-04-30T23:28:15.827Z,11.80
2023-04-30T23:31:02.019Z,11.80
2023-04-30T23:33:47.897Z,11.70
2023-04-30T23:36:33.225Z,11.70
2023-04-30T23:39:19.710Z,11.70
2023-04-30T23:42:05.551Z,11.60
2023-04-30T23:44:51.194Z,11.60
2023-04-30T23:47:36.697Z,11.50
2023-04-30T23:50:31.025Z,11.50
2023-04-30T23:53:17.315Z,11.50
2023-04-30T23:56:02.688Z,11.40
2023-04-30T23:58:47.970Z,11.40
